Time;durP1;ratioP1;P1;durP2;ratioP2;P2;SDS_P1;SDS_P2;PMS_P1;PMS_P2;Temp;Humidity;BMP_temperature;BMP_pressure;BME280_temperature;BME280_humidity;BME280_pressure;Samples;Min_cycle;Max_cycle;Signal;HPM_P1;HPM_P2
2023/07/04 00:00:16;;;;;;;0.25;0.20;;;;;;;16.35;58.68;99400.44;5006180;28;20053;-74
2023/07/04 00:02:45;;;;;;;0.20;0.20;;;;;;;16.28;59.35;99395.41;4973583;28;20041;-73
2023/07/04 00:05:11;;;;;;;0.20;0.20;;;;;;;16.20;59.04;99398.97;5018282;28;20521;-75
2023/07/04 00:07:41;;;;;;;0.10;0.10;;;;;;;16.14;58.80;99398.31;5010268;28;20056;-74
2023/07/04 00:10:09;;;;;;;0.20;0.20;;;;;;;16.15;59.00;99405.44;5026739;28;20049;-74
2023/07/04 00:12:35;;;;;;;0.20;0.20;;;;;;;16.11;59.25;99402.53;5016395;28;20045;-75
2023/07/04 00:15:03;;;;;;;0.20;0.20;;;;;;;16.09;58.98;99409.50;5003616;28;20432;-75
2023/07/04 00:17:31;;;;;;;0.20;0.20;;;;;;;16.08;59.56;99411.44;5004791;28;20050;-75
2023/07/04 00:19:57;;;;;;;0.20;0.20;;;;;;;16.05;59.56;99408.50;5007683;28;20509;-75
2023/07/04 00:22:24;;;;;;;0.20;0.20;;;;;;;16.02;59.68;99416.28;4988465;28;20080;-76
2023/07/04 00:24:50;;;;;;;0.20;0.20;;;;;;;16.04;59.67;99415.16;4971114;28;20039;-75
2023/07/04 00:27:16;;;;;;;0.20;0.20;;;;;;;16.04;59.00;99417.91;5009568;28;20053;-74
2023/07/04 00:29:43;;;;;;;0.10;0.10;;;;;;;16.04;59.21;99417.91;5020783;28;20136;-75
2023/07/04 00:32:14;;;;;;;;;;;;;;;16.01;60.23;99425.69;5032676;28;20308;-75
2023/07/04 00:34:44;;;;;;;0.30;0.30;;;;;;;15.97;59.86;99418.38;5010744;28;19925;-75
2023/07/04 00:37:10;;;;;;;0.10;0.10;;;;;;;15.96;59.94;99414.81;5011988;28;20045;-75
2023/07/04 00:39:37;;;;;;;0.20;0.20;;;;;;;15.99;60.07;99427.97;5010687;28;20041;-75
2023/07/04 00:42:08;;;;;;;0.20;0.20;;;;;;;15.95;60.12;99423.41;5008243;28;20050;-74
2023/07/04 00:44:37;;;;;;;0.40;0.20;;;;;;;15.98;60.38;99423.59;5024848;28;20052;-75
2023/07/04 00:47:15;;;;;;;0.20;0.20;;;;;;;15.99;59.91;99427.13;5010970;28;20037;-74
2023/07/04 00:49:45;;;;;;;0.20;0.20;;;;;;;15.99;59.79;99425.22;5024839;28;20041;-74
2023/07/04 00:52:15;;;;;;;0.20;0.20;;;;;;;15.95;59.47;99415.13;5024002;28;20053;-75
2023/07/04 00:54:44;;;;;;;0.20;0.20;;;;;;;16.00;59.44;99426.84;5021725;28;20226;-77
2023/07/04 00:57:13;;;;;;;0.20;0.20;;;;;;;15.98;59.70;99434.63;5015270;28;20444;-76
2023/07/04 00:59:45;;;;;;;0.20;0.20;;;;;;;16.02;59.08;99434.78;4986227;28;20052;-74
2023/07/04 01:02:15;;;;;;;0.20;0.20;;;;;;;16.05;58.59;99434.16;5004779;28;20092;-75
2023/07/04 01:04:46;;;;;;;0.20;0.20;;;;;;;16.06;58.65;99443.22;4988070;28;20088;-75
2023/07/04 01:07:21;;;;;;;0.20;0.20;;;;;;;16.08;58.46;99446.47;5005079;28;20577;-75
2023/07/04 01:09:54;;;;;;;0.20;0.20;;;;;;;16.06;58.58;99437.69;4987607;28;20460;-75
2023/07/04 01:12:21;;;;;;;0.17;0.17;;;;;;;16.07;59.26;99451.19;5004434;28;20521;-74
2023/07/04 01:14:50;;;;;;;0.20;0.20;;;;;;;16.06;58.76;99444.03;5003804;28;20521;-75
2023/07/04 01:17:17;;;;;;;0.20;0.20;;;;;;;16.09;58.90;99453.63;5019018;28;20054;-75
2023/07/04 01:19:46;;;;;;;0.20;0.20;;;;;;;16.14;58.16;99456.22;5006434;28;20397;-75
2023/07/04 01:22:24;;;;;;;0.20;0.20;;;;;;;16.20;58.26;99454.13;5023958;28;20092;-76
2023/07/04 01:25:03;;;;;;;0.20;0.20;;;;;;;16.24;58.17;99455.09;5023399;28;20049;-76
2023/07/04 01:27:32;;;;;;;0.35;0.20;;;;;;;16.29;57.39;99455.78;4991657;28;20087;-74
2023/07/04 01:30:04;;;;;;;0.20;0.20;;;;;;;16.30;57.73;99462.91;5025761;28;20059;-74
2023/07/04 01:32:32;;;;;;;0.20;0.20;;;;;;;16.34;57.10;99467.78;5008518;28;20068;-74
2023/07/04 01:35:00;;;;;;;0.30;0.30;;;;;;;16.38;57.30;99475.09;5023598;28;20064;-75
2023/07/04 01:37:29;;;;;;;0.20;0.20;;;;;;;16.43;57.10;99474.13;4992729;28;20212;-74
2023/07/04 01:39:55;;;;;;;0.20;0.20;;;;;;;16.48;56.81;99475.94;5003165;28;20108;-75
2023/07/04 01:42:22;;;;;;;0.27;0.27;;;;;;;16.50;57.09;99477.22;5022363;28;20056;-75
2023/07/04 01:44:50;;;;;;;0.20;0.20;;;;;;;16.50;56.67;99479.97;5021649;28;20064;-77
2023/07/04 01:47:18;;;;;;;0.30;0.30;;;;;;;16.47;56.11;99477.88;4991110;28;20517;-75
2023/07/04 01:49:44;;;;;;;;;;;;;;;16.51;56.52;99491.84;5023891;28;20303;-76
2023/07/04 01:52:10;;;;;;;0.20;0.20;;;;;;;16.54;56.12;99500.25;5022930;28;19924;-76
2023/07/04 01:54:36;;;;;;;0.20;0.20;;;;;;;16.55;55.92;99495.56;5006091;28;20111;-75
2023/07/04 01:57:05;;;;;;;0.30;0.30;;;;;;;16.58;55.86;99500.44;5021873;28;20042;-75
2023/07/04 01:59:31;;;;;;;0.20;0.20;;;;;;;16.58;55.80;99498.50;5005811;28;20042;-76
2023/07/04 02:02:02;;;;;;;0.20;0.20;;;;;;;16.61;55.04;99501.75;5006730;28;20633;-75
2023/07/04 02:04:28;;;;;;;0.30;0.30;;;;;;;16.57;55.61;99498.81;5027360;28;20045;-75
2023/07/04 02:06:56;;;;;;;0.22;0.22;;;;;;;16.54;55.77;99505.78;5024418;28;20049;-75
2023/07/04 02:09:24;;;;;;;0.20;0.20;;;;;;;16.50;55.92;99506.78;5008743;28;20037;-75
2023/07/04 02:11:51;;;;;;;0.20;0.20;;;;;;;16.48;55.73;99515.38;5027781;28;20095;-75
2023/07/04 02:14:24;;;;;;;0.20;0.20;;;;;;;16.40;55.64;99505.94;5026054;28;20049;-75
2023/07/04 02:16:50;;;;;;;0.20;0.20;;;;;;;16.40;56.11;99518.94;5027993;28;20045;-75
2023/07/04 02:19:18;;;;;;;0.30;0.30;;;;;;;16.37;56.52;99516.78;5009388;28;20051;-75
2023/07/04 02:21:45;;;;;;;0.30;0.30;;;;;;;16.38;56.42;99510.13;5006665;28;20038;-74
2023/07/04 02:24:11;;;;;;;0.20;0.20;;;;;;;16.38;57.10;99515.66;5025723;28;20270;-75
2023/07/04 02:26:38;;;;;;;0.25;0.25;;;;;;;16.48;56.70;99518.13;5028422;28;20053;-74
2023/07/04 02:29:04;;;;;;;0.20;0.20;;;;;;;16.54;56.92;99522.34;5027537;28;20465;-74
2023/07/04 02:31:30;;;;;;;0.25;0.25;;;;;;;16.61;56.02;99521.06;5028737;28;20103;-74
2023/07/04 02:33:56;;;;;;;0.20;0.20;;;;;;;16.68;55.81;99524.16;5031415;28;20056;-74
2023/07/04 02:36:25;;;;;;;0.20;0.20;;;;;;;16.72;55.64;99528.72;5028710;28;20049;-75
2023/07/04 02:38:51;;;;;;;0.30;0.30;;;;;;;16.78;55.36;99536.81;5026091;28;20056;-74
2023/07/04 02:41:18;;;;;;;0.20;0.20;;;;;;;16.81;55.19;99534.25;5013072;28;20053;-75
2023/07/04 02:43:46;;;;;;;0.22;0.22;;;;;;;16.84;55.26;99539.09;4993941;28;20056;-75
2023/07/04 02:46:13;;;;;;;0.28;0.28;;;;;;;16.86;55.03;99538.78;5026417;28;20062;-75
2023/07/04 02:48:44;;;;;;;0.25;0.25;;;;;;;16.90;55.60;99541.72;5025971;28;20520;-75
2023/07/04 02:51:10;;;;;;;0.20;0.20;;;;;;;16.95;55.29;99539.63;5027090;28;20140;-76
2023/07/04 02:53:38;;;;;;;0.47;0.30;;;;;;;17.00;55.26;99544.19;5028292;28;20099;-74
2023/07/04 02:56:04;;;;;;;0.20;0.20;;;;;;;17.06;55.71;99545.66;5026487;28;20052;-75
2023/07/04 02:58:31;;;;;;;0.30;0.30;;;;;;;17.14;55.09;99550.34;4991564;28;20141;-75
2023/07/04 03:00:58;;;;;;;0.20;0.20;;;;;;;17.20;54.64;99553.78;5017111;28;20483;-75
2023/07/04 03:03:27;;;;;;;0.30;0.30;;;;;;;17.27;55.37;99550.53;5025080;28;20075;-75
2023/07/04 03:05:56;;;;;;;0.30;0.30;;;;;;;17.31;54.64;99553.47;5010975;28;20072;-75
2023/07/04 03:08:32;;;;;;;0.20;0.20;;;;;;;17.35;54.09;99538.66;5025746;28;20053;-75
2023/07/04 03:11:00;;;;;;;0.20;0.20;;;;;;;17.50;54.24;99544.81;5009364;28;20053;-75
2023/07/04 03:13:30;;;;;;;0.20;0.20;;;;;;;17.56;54.14;99549.84;5023447;28;20072;-75
2023/07/04 03:15:57;;;;;;;0.28;0.28;;;;;;;17.63;53.72;99552.09;5009558;28;20049;-74
2023/07/04 03:18:23;;;;;;;0.20;0.20;;;;;;;17.71;54.22;99547.69;5007544;28;20140;-75
2023/07/04 03:20:51;;;;;;;;;;;;;;;17.80;53.98;99553.22;5031711;28;20310;-75
2023/07/04 03:23:17;;;;;;;0.30;0.30;;;;;;;17.87;53.72;99559.03;5026109;28;19925;-75
2023/07/04 03:25:46;;;;;;;0.20;0.20;;;;;;;17.92;53.77;99558.06;5008823;28;20420;-76
2023/07/04 03:28:15;;;;;;;0.20;0.20;;;;;;;17.98;53.13;99551.19;5024080;28;20128;-76
2023/07/04 03:30:41;;;;;;;0.30;0.30;;;;;;;17.99;52.48;99553.63;5026969;28;20531;-75
2023/07/04 03:33:11;;;;;;;0.30;0.30;;;;;;;18.02;52.86;99556.88;5020493;28;20076;-75
2023/07/04 03:35:40;;;;;;;0.20;0.20;;;;;;;18.05;52.87;99562.59;5028278;28;20041;-72
2023/07/04 03:38:07;;;;;;;0.30;0.30;;;;;;;18.11;52.01;99560.47;5025094;28;20303;-72
2023/07/04 03:40:33;;;;;;;0.30;0.30;;;;;;;18.12;51.90;99564.84;5008761;28;20045;-73
2023/07/04 03:42:59;;;;;;;0.30;0.30;;;;;;;18.19;52.47;99562.38;5024842;28;20045;-73
2023/07/04 03:45:27;;;;;;;0.30;0.30;;;;;;;18.25;51.47;99566.56;4996071;28;20398;-73
2023/07/04 03:47:53;;;;;;;0.20;0.20;;;;;;;18.26;51.78;99570.97;4991640;28;20049;-73
2023/07/04 03:50:19;;;;;;;0.20;0.20;;;;;;;18.31;51.75;99569.16;5004653;28;20575;-73
2023/07/04 03:52:45;;;;;;;0.30;0.30;;;;;;;18.35;51.52;99579.25;5024022;28;20049;-73
2023/07/04 03:55:12;;;;;;;0.30;0.30;;;;;;;18.40;51.60;99567.97;5006784;28;20100;-72
2023/07/04 03:57:39;;;;;;;0.20;0.20;;;;;;;18.47;51.69;99572.16;5005286;28;20513;-73
2023/07/04 04:00:09;;;;;;;0.30;0.30;;;;;;;18.52;51.14;99572.00;5006816;28;20057;-73
2023/07/04 04:02:56;;;;;;;0.20;0.20;;;;;;;18.60;50.75;99578.63;4992249;28;20060;-73
2023/07/04 04:05:23;;;;;;;0.30;0.30;;;;;;;18.61;51.16;99572.72;5006261;28;20045;-73
2023/07/04 04:07:49;;;;;;;0.20;0.20;;;;;;;18.72;51.07;99581.47;5006638;28;20057;-73
2023/07/04 04:10:16;;;;;;;0.30;0.30;;;;;;;18.79;50.81;99584.53;5025088;28;20576;-73
2023/07/04 04:12:42;;;;;;;0.20;0.20;;;;;;;18.87;50.25;99588.38;5007245;28;20148;-73
2023/07/04 04:15:09;;;;;;;0.30;0.30;;;;;;;18.93;49.97;99591.78;5022511;28;20108;-72
2023/07/04 04:17:36;;;;;;;0.20;0.20;;;;;;;18.97;49.86;99585.22;5023943;28;20045;-72
2023/07/04 04:20:06;;;;;;;0.30;0.30;;;;;;;19.04;49.29;99583.91;5024433;28;20101;-73
2023/07/04 04:22:33;;;;;;;0.30;0.30;;;;;;;19.11;49.43;99584.16;5008198;28;20053;-73
2023/07/04 04:25:00;;;;;;;0.30;0.30;;;;;;;19.13;49.17;99587.44;5014730;28;20065;-73
2023/07/04 04:27:27;;;;;;;0.30;0.30;;;;;;;19.19;48.73;99582.47;4989259;28;20048;-72
2023/07/04 04:29:53;;;;;;;0.30;0.30;;;;;;;19.27;48.86;99592.69;5005841;28;20421;-73
2023/07/04 04:32:22;;;;;;;0.30;0.30;;;;;;;19.34;48.34;99589.38;4973164;28;20050;-73
2023/07/04 04:34:48;;;;;;;0.35;0.35;;;;;;;19.38;48.07;99591.13;4989444;28;20096;-72
2023/07/04 04:37:16;;;;;;;0.30;0.30;;;;;;;19.44;47.60;99597.28;5007294;28;20076;-73
2023/07/04 04:39:43;;;;;;;0.30;0.30;;;;;;;19.49;47.93;99596.22;5008228;28;20046;-73
2023/07/04 04:42:14;;;;;;;0.30;0.30;;;;;;;19.57;47.25;99600.91;5025933;28;20099;-73
2023/07/04 04:44:40;;;;;;;0.30;0.30;;;;;;;19.65;46.90;99605.53;5022696;28;20056;-73
2023/07/04 04:47:07;;;;;;;0.30;0.30;;;;;;;19.66;46.86;99606.38;4989020;28;20500;-73
2023/07/04 04:49:33;;;;;;;0.30;0.30;;;;;;;19.71;46.85;99603.38;5007956;28;20347;-73
2023/07/04 04:51:59;;;;;;;0.30;0.30;;;;;;;19.78;46.93;99611.97;5022067;28;20045;-73
2023/07/04 04:54:27;;;;;;;0.30;0.30;;;;;;;19.87;46.60;99599.94;5021080;28;20093;-73
2023/07/04 04:56:54;;;;;;;0.25;0.25;;;;;;;19.96;45.98;99609.03;5021943;28;20037;-73
2023/07/04 04:59:20;;;;;;;0.30;0.30;;;;;;;19.96;45.60;99611.81;5020736;28;20144;-73
2023/07/04 05:01:47;;;;;;;0.30;0.30;;;;;;;20.01;45.49;99608.00;5027187;28;20041;-73
2023/07/04 05:04:13;;;;;;;0.30;0.30;;;;;;;20.06;44.89;99608.59;5005522;28;20055;-72
2023/07/04 05:06:39;;;;;;;0.30;0.30;;;;;;;20.08;44.77;99603.50;5024209;28;20432;-73
2023/07/04 05:09:05;;;;;;;0.30;0.30;;;;;;;20.11;44.48;99607.53;5011657;28;20096;-73
2023/07/04 05:11:33;;;;;;;0.30;0.30;;;;;;;20.17;44.27;99617.28;5002863;28;20501;-73
2023/07/04 05:14:00;;;;;;;0.30;0.30;;;;;;;20.18;44.42;99616.13;5005398;28;20404;-73
2023/07/04 05:16:26;;;;;;;;;;;;;;;20.24;44.52;99625.84;4990324;28;20088;-73
2023/07/04 05:18:53;;;;;;;0.30;0.30;;;;;;;20.24;44.23;99611.97;5004913;28;19961;-73
2023/07/04 05:21:21;;;;;;;0.30;0.30;;;;;;;20.34;44.12;99616.25;5014576;28;20088;-74
2023/07/04 05:23:49;;;;;;;0.30;0.30;;;;;;;20.44;44.04;99614.19;5026535;28;20045;-73
2023/07/04 05:26:17;;;;;;;0.30;0.30;;;;;;;20.51;44.24;99623.56;5022833;28;20045;-73
2023/07/04 05:28:45;;;;;;;0.30;0.30;;;;;;;20.60;44.11;99620.66;5002314;28;20473;-73
2023/07/04 05:31:14;;;;;;;0.40;0.40;;;;;;;20.65;43.00;99625.19;5024430;28;20076;-73
2023/07/04 05:33:41;;;;;;;0.30;0.30;;;;;;;20.72;42.69;99633.72;5022137;28;20134;-73
2023/07/04 05:36:10;;;;;;;0.30;0.30;;;;;;;20.75;42.55;99638.59;5025278;28;20072;-73
2023/07/04 05:38:37;;;;;;;0.30;0.30;;;;;;;20.69;42.65;99640.00;5024214;28;20053;-73
2023/07/04 05:41:07;;;;;;;0.30;0.30;;;;;;;20.67;42.23;99643.09;5027170;28;20056;-73
2023/07/04 05:43:33;;;;;;;0.30;0.30;;;;;;;20.66;41.83;99638.72;5028429;28;20045;-74
2023/07/04 05:46:01;;;;;;;0.30;0.30;;;;;;;20.68;42.27;99647.53;5005358;28;20042;-74
2023/07/04 05:48:27;;;;;;;0.30;0.30;;;;;;;20.78;41.52;99646.25;4990372;28;20116;-74
2023/07/04 05:50:54;;;;;;;0.30;0.30;;;;;;;20.85;41.77;99639.31;5002306;28;20571;-73
2023/07/04 05:53:24;;;;;;;0.30;0.30;;;;;;;20.90;41.94;99650.19;5001551;28;20050;-73
2023/07/04 05:55:50;;;;;;;0.30;0.30;;;;;;;20.91;41.87;99651.81;5005702;28;20145;-73
2023/07/04 05:58:17;;;;;;;0.30;0.30;;;;;;;21.01;41.76;99662.47;4987787;28;20608;-72
2023/07/04 06:00:43;;;;;;;0.30;0.30;;;;;;;20.94;41.45;99657.47;5012226;28;20592;-72
2023/07/04 06:03:10;;;;;;;0.30;0.30;;;;;;;20.90;41.03;99662.13;5025408;28;20049;-73
2023/07/04 06:05:39;;;;;;;0.30;0.30;;;;;;;20.92;41.02;99657.03;5007330;28;20184;-73
2023/07/04 06:08:06;;;;;;;0.30;0.30;;;;;;;20.89;43.94;99657.72;5016463;28;20504;-74
2023/07/04 06:10:32;;;;;;;0.30;0.30;;;;;;;20.78;44.68;99660.13;4990329;28;20049;-73
2023/07/04 06:12:58;;;;;;;0.30;0.30;;;;;;;20.73;45.10;99663.13;5022950;28;20148;-74
2023/07/04 06:15:25;;;;;;;0.30;0.30;;;;;;;20.64;46.28;99673.56;5027510;28;20465;-72
2023/07/04 06:17:51;;;;;;;0.40;0.40;;;;;;;20.57;49.85;99674.13;5025432;28;20204;-74
2023/07/04 06:20:20;;;;;;;0.30;0.30;;;;;;;20.50;48.23;99676.66;5024621;28;20513;-72
2023/07/04 06:22:47;;;;;;;0.40;0.40;;;;;;;20.44;49.36;99683.59;5025886;28;20053;-73
2023/07/04 06:25:13;;;;;;;0.30;0.30;;;;;;;20.25;50.18;99684.94;5013734;28;20119;-72
2023/07/04 06:27:41;;;;;;;0.30;0.30;;;;;;;19.92;51.76;99680.22;5009272;28;20053;-72
2023/07/04 06:30:10;;;;;;;0.30;0.30;;;;;;;19.75;50.46;99679.22;5007563;28;20073;-73
2023/07/04 06:32:37;;;;;;;0.30;0.30;;;;;;;19.60;49.88;99674.28;5016315;28;20045;-72
2023/07/04 06:35:04;;;;;;;0.30;0.30;;;;;;;18.75;53.40;99672.19;5024874;28;20095;-72
2023/07/04 06:37:32;;;;;;;0.30;0.30;;;;;;;18.26;57.65;99673.34;5006783;28;20056;-71
2023/07/04 06:39:59;;;;;;;0.30;0.30;;;;;;;18.36;57.66;99674.13;4992901;28;20054;-70
2023/07/04 06:42:25;;;;;;;0.30;0.30;;;;;;;18.47;55.89;99674.56;5007396;28;20057;-71
2023/07/04 06:44:55;;;;;;;0.30;0.30;;;;;;;18.62;55.22;99676.00;4991243;28;20112;-71
2023/07/04 06:47:22;;;;;;;0.30;0.30;;;;;;;18.84;53.71;99678.47;5010294;28;20049;-71
2023/07/04 06:49:48;;;;;;;0.40;0.40;;;;;;;19.00;53.08;99677.94;5020922;28;20053;-69
2023/07/04 06:52:14;;;;;;;0.30;0.30;;;;;;;19.14;52.86;99680.47;5005124;28;20504;-69
2023/07/04 06:54:42;;;;;;;0.30;0.30;;;;;;;19.43;51.73;99687.09;5003399;28;20057;-69
2023/07/04 06:57:08;;;;;;;0.30;0.30;;;;;;;19.52;49.05;99676.78;4634632;28;9999849;-69
2023/07/04 06:59:34;;;;;;;0.30;0.30;;;;;;;19.55;47.96;99687.19;4970136;28;20042;-70
2023/07/04 07:02:01;;;;;;;0.30;0.30;;;;;;;19.85;48.02;99694.63;5000913;28;20092;-70
2023/07/04 07:04:27;;;;;;;0.30;0.30;;;;;;;19.96;46.00;99686.72;5007796;28;20456;-70
2023/07/04 07:06:53;;;;;;;0.30;0.30;;;;;;;20.13;46.98;99699.59;4992941;28;20085;-70
2023/07/04 07:09:19;;;;;;;0.40;0.40;;;;;;;20.25;44.83;99696.06;5013866;28;20715;-73
2023/07/04 07:11:47;;;;;;;0.30;0.30;;;;;;;20.32;47.00;99695.50;5016143;28;20084;-72
2023/07/04 07:14:13;;;;;;;0.30;0.30;;;;;;;20.42;44.75;99711.69;5018342;28;20099;-73
2023/07/04 07:16:39;;;;;;;0.30;0.30;;;;;;;20.43;44.44;99699.44;4996804;28;20052;-73
2023/07/04 07:19:06;;;;;;;0.30;0.30;;;;;;;20.59;44.27;99699.59;5017407;28;20052;-74
2023/07/04 07:21:32;;;;;;;0.30;0.30;;;;;;;20.90;43.27;99695.47;5022323;28;20041;-74
2023/07/04 07:24:00;;;;;;;0.30;0.30;;;;;;;20.87;42.77;99681.44;5023974;28;20346;-74
2023/07/04 07:26:27;;;;;;;0.30;0.30;;;;;;;21.00;43.42;99685.84;5025786;28;20371;-74
2023/07/04 07:28:55;;;;;;;0.30;0.30;;;;;;;21.25;43.01;99702.50;5025781;28;20052;-74
2023/07/04 07:31:23;;;;;;;0.30;0.30;;;;;;;21.25;41.50;99696.94;5023896;28;20520;-73
2023/07/04 07:33:51;;;;;;;0.30;0.30;;;;;;;21.06;41.63;99698.34;5025813;28;20508;-74
2023/07/04 07:36:20;;;;;;;0.32;0.32;;;;;;;20.93;41.06;99700.31;5003516;28;20050;-74
2023/07/04 07:38:47;;;;;;;0.40;0.40;;;;;;;21.24;40.48;99693.34;5017577;28;20265;-74
2023/07/04 07:41:13;;;;;;;0.40;0.40;;;;;;;21.34;39.59;99699.59;5017763;28;20056;-74
2023/07/04 07:43:41;;;;;;;0.30;0.30;;;;;;;21.46;38.89;99690.41;5022732;28;20049;-73
2023/07/04 07:46:10;;;;;;;0.30;0.30;;;;;;;21.46;38.57;99693.19;5035573;28;20045;-73
2023/07/04 07:48:36;;;;;;;0.40;0.40;;;;;;;21.45;38.95;99700.72;5010699;28;20050;-74
2023/07/04 07:51:03;;;;;;;0.30;0.30;;;;;;;21.23;39.58;99702.06;5009533;28;20053;-74
2023/07/04 07:53:29;;;;;;;0.30;0.30;;;;;;;21.27;39.80;99694.63;5011695;28;20484;-74
2023/07/04 07:55:55;;;;;;;0.30;0.30;;;;;;;21.33;39.27;99695.19;5010837;28;20378;-73
2023/07/04 07:58:22;;;;;;;0.40;0.40;;;;;;;21.22;40.17;99708.75;5009218;28;20553;-74
2023/07/04 08:00:48;;;;;;;0.30;0.30;;;;;;;21.31;38.90;99706.66;5007901;28;20058;-73
2023/07/04 08:03:16;;;;;;;0.30;0.30;;;;;;;21.29;39.18;99708.97;5006994;28;20050;-73
2023/07/04 08:05:45;;;;;;;0.40;0.40;;;;;;;21.46;38.27;99694.00;5018973;28;20053;-73
2023/07/04 08:08:11;;;;;;;0.30;0.30;;;;;;;21.70;38.53;99706.25;5021413;28;20049;-74
2023/07/04 08:10:40;;;;;;;0.30;0.30;;;;;;;21.63;38.77;99706.03;5023235;28;20079;-74
2023/07/04 08:13:07;;;;;;;0.40;0.40;;;;;;;21.56;39.37;99703.84;5011810;28;20520;-74
2023/07/04 08:15:34;;;;;;;0.38;0.38;;;;;;;21.75;39.47;99700.44;5006593;28;20550;-73
2023/07/04 08:18:03;;;;;;;0.30;0.30;;;;;;;22.19;38.20;99709.97;5022708;28;20049;-73
2023/07/04 08:20:31;;;;;;;0.40;0.40;;;;;;;22.16;36.95;99714.28;5020643;28;20046;-75
2023/07/04 08:22:58;;;;;;;0.30;0.30;;;;;;;21.88;36.71;99731.81;5024558;28;20060;-74
2023/07/04 08:25:24;;;;;;;0.30;0.30;;;;;;;21.66;37.66;99708.13;5007757;28;20160;-74
2023/07/04 08:27:50;;;;;;;0.50;0.50;;;;;;;21.90;38.41;99718.34;5013014;28;20050;-74
2023/07/04 08:30:17;;;;;;;0.30;0.30;;;;;;;22.42;37.12;99721.34;5006071;28;20045;-74
2023/07/04 08:32:43;;;;;;;0.30;0.30;;;;;;;22.48;37.03;99719.13;4991152;28;20528;-74
2023/07/04 08:35:09;;;;;;;0.30;0.30;;;;;;;22.06;37.89;99709.25;5016615;28;20060;-74
2023/07/04 08:37:37;;;;;;;0.30;0.30;;;;;;;21.87;38.43;99707.13;5023294;28;20048;-74
2023/07/04 08:40:04;;;;;;;0.30;0.30;;;;;;;21.73;38.83;99705.53;4997152;28;20041;-74
2023/07/04 08:42:35;;;;;;;0.30;0.30;;;;;;;21.37;39.63;99727.50;5016583;28;20049;-74
2023/07/04 08:45:05;;;;;;;0.50;0.50;;;;;;;22.01;38.34;99715.06;5019073;28;20045;-74
2023/07/04 08:47:33;;;;;;;0.50;0.50;;;;;;;23.00;39.00;99713.63;5002431;28;20588;-74
2023/07/04 08:50:03;;;;;;;0.50;0.50;;;;;;;24.18;35.77;99706.25;5018645;28;20056;-72
2023/07/04 08:52:35;;;;;;;0.50;0.50;;;;;;;24.56;35.94;99722.50;5022161;28;20139;-72
2023/07/04 08:55:07;;;;;;;0.40;0.40;;;;;;;24.87;33.40;99713.06;4988888;28;20066;-72
2023/07/04 08:57:39;;;;;;;0.50;0.50;;;;;;;24.90;32.45;99715.13;5019171;28;20050;-72
2023/07/04 09:00:12;;;;;;;0.30;0.30;;;;;;;24.35;32.83;99716.16;5003001;28;20283;-72
2023/07/04 09:03:05;;;;;;;0.30;0.30;;;;;;;23.43;34.62;99706.31;5009633;28;20073;-72
2023/07/04 09:05:47;;;;;;;0.30;0.30;;;;;;;22.93;35.74;99728.22;4989313;28;20049;-73
2023/07/04 09:08:20;;;;;;;0.60;0.60;;;;;;;23.01;35.11;99701.31;5019481;28;20050;-74
2023/07/04 09:10:51;;;;;;;0.60;0.60;;;;;;;24.28;34.46;99704.03;5024491;28;20053;-73
2023/07/04 09:13:25;;;;;;;0.60;0.60;;;;;;;25.24;32.24;99722.03;5015124;28;20217;-74
2023/07/04 09:15:53;;;;;;;0.60;0.60;;;;;;;25.47;31.66;99705.94;5008794;28;20107;-74
2023/07/04 09:18:35;;;;;;;0.60;0.60;;;;;;;25.81;30.57;99707.19;5018639;28;20065;-74
2023/07/04 09:21:08;;;;;;;0.30;0.30;;;;;;;24.85;31.50;99707.03;5017320;28;20049;-74
2023/07/04 09:23:35;;;;;;;0.32;0.32;;;;;;;23.86;32.26;99731.50;5008332;28;20169;-75
2023/07/04 09:26:03;;;;;;;0.40;0.40;;;;;;;22.99;32.67;99724.00;5007954;28;20644;-74
2023/07/04 09:28:34;;;;;;;0.50;0.50;;;;;;;23.05;33.28;99714.19;5022789;28;20100;-74
2023/07/04 09:31:01;;;;;;;0.50;0.50;;;;;;;23.55;32.52;99712.94;5019497;28;20049;-74
2023/07/04 09:33:29;;;;;;;0.47;0.30;;;;;;;23.50;32.91;99711.22;5018272;28;20128;-76
2023/07/04 09:35:56;;;;;;;0.30;0.30;;;;;;;22.94;32.95;99713.94;5022533;28;20050;-74
2023/07/04 09:38:23;;;;;;;0.50;0.50;;;;;;;22.69;33.38;99723.63;5019558;28;20081;-74
2023/07/04 09:40:54;;;;;;;0.30;0.30;;;;;;;22.63;33.75;99714.72;5021040;28;20049;-75
2023/07/04 09:43:33;;;;;;;0.32;0.32;;;;;;;22.67;35.10;99705.31;4996247;28;20058;-74
2023/07/04 09:46:20;;;;;;;0.50;0.50;;;;;;;22.93;36.10;99706.72;5016316;28;20045;-72
2023/07/04 09:48:47;;;;;;;0.60;0.60;;;;;;;23.95;34.19;99708.97;5019550;28;20128;-72
2023/07/04 09:51:26;;;;;;;0.30;0.30;;;;;;;24.48;34.05;99711.19;5024275;28;20406;-72
2023/07/04 09:54:09;;;;;;;0.40;0.40;;;;;;;24.16;32.35;99705.81;5025130;28;20527;-72
2023/07/04 09:56:36;;;;;;;0.60;0.60;;;;;;;24.51;31.68;99709.63;4663900;28;10000574;-72
2023/07/04 09:59:28;;;;;;;0.50;0.50;;;;;;;25.53;31.06;99706.47;5017467;28;20107;-72
2023/07/04 10:02:10;;;;;;;0.50;0.50;;;;;;;26.09;27.88;99720.75;5001838;28;20049;-73
2023/07/04 10:04:40;;;;;;;0.60;0.60;;;;;;;26.24;27.31;99704.13;5023938;28;20053;-74
2023/07/04 10:07:13;;;;;;;0.52;0.52;;;;;;;26.91;27.08;99713.56;5018614;28;20333;-75
2023/07/04 10:09:47;;;;;;;0.60;0.60;;;;;;;26.85;26.75;99715.06;5013628;28;20140;-75
2023/07/04 10:12:17;;;;;;;0.55;0.55;;;;;;;26.84;26.31;99700.25;5016752;28;20054;-73
2023/07/04 10:14:48;;;;;;;0.50;0.50;;;;;;;27.25;26.62;99724.63;5008955;28;20081;-73
2023/07/04 10:17:17;;;;;;;0.40;0.40;;;;;;;27.57;25.89;99698.75;5020746;28;20045;-73
2023/07/04 10:19:46;;;;;;;0.40;0.40;;;;;;;26.94;26.98;99690.34;5014745;28;20050;-72
2023/07/04 10:22:21;;;;;;;0.55;0.55;;;;;;;26.85;27.17;99696.25;5012393;28;20131;-72
2023/07/04 10:24:49;;;;;;;0.60;0.60;;;;;;;27.60;26.69;99697.97;5011706;28;20045;-74
2023/07/04 10:27:16;;;;;;;0.60;0.60;;;;;;;28.14;26.85;99711.41;5012208;28;20060;-73
2023/07/04 10:29:48;;;;;;;0.52;0.52;;;;;;;27.97;28.56;99701.72;5019920;28;20124;-74
2023/07/04 10:32:16;;;;;;;0.50;0.50;;;;;;;27.93;27.41;99686.03;5017361;28;20077;-73
2023/07/04 10:34:49;;;;;;;0.70;0.70;;;;;;;28.05;27.67;99705.34;5017450;28;20049;-74
2023/07/04 10:37:21;;;;;;;0.60;0.60;;;;;;;27.77;28.50;99703.25;5014597;28;20049;-74
2023/07/04 10:39:48;;;;;;;0.70;0.70;;;;;;;27.60;32.72;99699.97;5019168;28;20081;-72
2023/07/04 10:42:24;;;;;;;0.80;0.80;;;;;;;27.96;29.55;99686.06;5018528;28;20453;-73
2023/07/04 10:44:55;;;;;;;0.90;0.90;;;;;;;27.93;33.50;99700.09;5021368;28;20141;-72
2023/07/04 10:47:27;;;;;;;0.80;0.80;;;;;;;28.02;31.17;99700.53;5018794;28;20049;-71
2023/07/04 10:49:58;;;;;;;0.90;0.90;;;;;;;27.56;32.81;99693.56;5019467;28;20559;-71
2023/07/04 10:52:29;;;;;;;1.00;1.00;;;;;;;27.18;31.36;99702.91;5015484;28;20049;-72
2023/07/04 10:54:57;;;;;;;0.95;0.95;;;;;;;27.26;33.53;99703.78;5023147;28;20535;-72
2023/07/04 10:57:30;;;;;;;1.00;1.00;;;;;;;27.08;35.65;99700.06;5021487;28;20076;-72
2023/07/04 11:00:04;;;;;;;1.00;1.00;;;;;;;27.21;32.81;99703.31;5023191;28;20054;-70
2023/07/04 11:02:37;;;;;;;1.00;1.00;;;;;;;26.83;32.50;99701.44;5006064;28;20041;-72
2023/07/04 11:05:09;;;;;;;1.00;1.00;;;;;;;26.32;33.03;99684.19;5029729;28;20505;-72
2023/07/04 11:07:39;;;;;;;0.98;0.98;;;;;;;26.42;32.40;99693.06;5025782;28;20041;-72
2023/07/04 11:10:09;;;;;;;1.00;1.00;;;;;;;26.79;32.99;99695.00;5022291;28;20445;-72
2023/07/04 11:12:37;;;;;;;1.10;1.10;;;;;;;27.26;33.91;99694.56;5015955;28;20164;-72
2023/07/04 11:15:17;;;;;;;1.10;1.10;;;;;;;27.62;33.54;99679.91;5008343;28;20042;-71
2023/07/04 11:17:45;;;;;;;1.00;1.00;;;;;;;27.66;33.65;99691.97;5025785;28;20053;-73
2023/07/04 11:20:17;;;;;;;1.10;1.10;;;;;;;27.67;31.14;99702.00;5026248;28;20046;-71
2023/07/04 11:22:57;;;;;;;1.10;1.10;;;;;;;27.91;29.80;99685.63;5024323;28;20428;-72
2023/07/04 11:25:51;;;;;;;1.10;1.10;;;;;;;28.30;27.65;99702.63;5024784;28;20049;-74
2023/07/04 11:28:25;;;;;;;1.10;1.10;;;;;;;28.16;28.95;99680.06;5003170;28;20077;-70
2023/07/04 11:31:07;;;;;;;1.10;1.10;;;;;;;28.84;28.96;99687.81;5017644;28;20054;-70
2023/07/04 11:33:40;;;;;;;1.10;1.10;;;;;;;29.56;28.26;99686.88;5015650;28;20046;-70
2023/07/04 11:36:15;;;;;;;1.10;1.10;;;;;;;30.02;26.68;99691.91;5018524;28;20061;-71
2023/07/04 11:38:44;;;;;;;1.10;1.10;;;;;;;30.18;27.69;99682.97;5018621;28;20053;-72
2023/07/04 11:41:10;;;;;;;1.10;1.10;;;;;;;31.04;25.36;99683.50;5003863;28;20046;-71